sensor_id;sensor_type;location;lat;lon;timestamp;temperature;humidity
10149;DHT22;5115;50.920;6.376;2022-10-16T00:00:32;15.50;99.90
10149;DHT22;5115;50.920;6.376;2022-10-16T00:02:57;15.50;99.90
10149;DHT22;5115;50.920;6.376;2022-10-16T00:05:23;15.50;99.90
10149;DHT22;5115;50.920;6.376;2022-10-16T00:07:49;15.50;99.90
10149;DHT22;5115;50.920;6.376;2022-10-16T00:10:14;15.50;99.90
10149;DHT22;5115;50.920;6.376;2022-10-16T00:12:40;15.50;99.90
10149;DHT22;5115;50.920;6.376;2022-10-16T00:15:06;15.50;99.90
10149;DHT22;5115;50.920;6.376;2022-10-16T00:17:32;15.50;99.90
10149;DHT22;5115;50.920;6.376;2022-10-16T00:19:57;15.60;99.90
10149;DHT22;5115;50.920;6.376;2022-10-16T00:22:23;15.50;99.90
10149;DHT22;5115;50.920;6.376;2022-10-16T00:24:49;15.50;99.90
10149;DHT22;5115;50.920;6.376;2022-10-16T00:27:14;15.50;99.90
10149;DHT22;5115;50.920;6.376;2022-10-16T00:29:40;15.50;99.90
10149;DHT22;5115;50.920;6.376;2022-10-16T00:32:05;15.50;99.90
10149;DHT22;5115;50.920;6.376;2022-10-16T00:34:31;15.40;99.90
10149;DHT22;5115;50.920;6.376;2022-10-16T00:36:56;15.40;99.90
10149;DHT22;5115;50.920;6.376;2022-10-16T00:39:22;15.40;99.90
10149;DHT22;5115;50.920;6.376;2022-10-16T00:41:47;15.30;99.90
10149;DHT22;5115;50.920;6.376;2022-10-16T00:44:43;15.30;99.90
10149;DHT22;5115;50.920;6.376;2022-10-16T00:47:21;15.20;99.90
10149;DHT22;5115;50.920;6.376;2022-10-16T00:49:50;15.00;99.90
10149;DHT22;5115;50.920;6.376;2022-10-16T00:52:17;14.90;99.90
10149;DHT22;5115;50.920;6.376;2022-10-16T00:54:43;14.70;99.90
10149;DHT22;5115;50.920;6.376;2022-10-16T00:57:09;14.70;99.90
10149;DHT22;5115;50.920;6.376;2022-10-16T00:59:39;14.60;99.90
10149;DHT22;5115;50.920;6.376;2022-10-16T01:02:08;14.60;99.90
10149;DHT22;5115;50.920;6.376;2022-10-16T01:04:38;14.50;99.90
10149;DHT22;5115;50.920;6.376;2022-10-16T01:07:30;14.40;99.90
10149;DHT22;5115;50.920;6.376;2022-10-16T01:10:32;14.40;99.90
10149;DHT22;5115;50.920;6.376;2022-10-16T01:15:42;14.30;99.90
10149;DHT22;5115;50.920;6.376;2022-10-16T01:20:46;14.20;99.90
10149;DHT22;5115;50.920;6.376;2022-10-16T01:23:48;14.20;99.90
10149;DHT22;5115;50.920;6.376;2022-10-16T01:29:16;14.20;99.90
10149;DHT22;5115;50.920;6.376;2022-10-16T01:31:48;14.20;99.90
10149;DHT22;5115;50.920;6.376;2022-10-16T01:34:25;14.20;99.90
10149;DHT22;5115;50.920;6.376;2022-10-16T01:36:57;14.20;99.90
10149;DHT22;5115;50.920;6.376;2022-10-16T01:39:30;14.20;99.90
10149;DHT22;5115;50.920;6.376;2022-10-16T01:42:03;14.20;99.90
10149;DHT22;5115;50.920;6.376;2022-10-16T01:44:32;14.20;99.90
10149;DHT22;5115;50.920;6.376;2022-10-16T01:46:59;14.20;99.90
10149;DHT22;5115;50.920;6.376;2022-10-16T01:49:29;14.30;99.90
10149;DHT22;5115;50.920;6.376;2022-10-16T01:51:56;14.30;99.90
10149;DHT22;5115;50.920;6.376;2022-10-16T01:54:27;14.40;99.90
10149;DHT22;5115;50.920;6.376;2022-10-16T01:56:55;14.30;99.90
10149;DHT22;5115;50.920;6.376;2022-10-16T01:59:23;14.40;99.90
10149;DHT22;5115;50.920;6.376;2022-10-16T02:01:52;14.40;99.90
10149;DHT22;5115;50.920;6.376;2022-10-16T02:04:39;14.40;99.90
10149;DHT22;5115;50.920;6.376;2022-10-16T02:07:06;14.40;99.90
10149;DHT22;5115;50.920;6.376;2022-10-16T02:09:33;14.50;99.90
10149;DHT22;5115;50.920;6.376;2022-10-16T02:12:03;14.50;99.90
10149;DHT22;5115;50.920;6.376;2022-10-16T02:14:31;14.60;99.90
10149;DHT22;5115;50.920;6.376;2022-10-16T02:16:56;14.60;99.90
10149;DHT22;5115;50.920;6.376;2022-10-16T02:19:22;14.60;99.90
10149;DHT22;5115;50.920;6.376;2022-10-16T02:27:05;14.70;99.90
10149;DHT22;5115;50.920;6.376;2022-10-16T02:29:37;14.60;99.90
10149;DHT22;5115;50.920;6.376;2022-10-16T02:32:05;14.60;99.90
10149;DHT22;5115;50.920;6.376;2022-10-16T02:34:32;14.70;99.90
10149;DHT22;5115;50.920;6.376;2022-10-16T02:36:59;14.60;99.90
10149;DHT22;5115;50.920;6.376;2022-10-16T02:39:27;14.60;99.90
10149;DHT22;5115;50.920;6.376;2022-10-16T02:41:53;14.60;99.90
10149;DHT22;5115;50.920;6.376;2022-10-16T02:44:19;14.60;99.90
10149;DHT22;5115;50.920;6.376;2022-10-16T02:46:45;14.50;99.90
10149;DHT22;5115;50.920;6.376;2022-10-16T02:49:10;14.50;99.90
10149;DHT22;5115;50.920;6.376;2022-10-16T02:51:36;14.40;99.90
10149;DHT22;5115;50.920;6.376;2022-10-16T02:54:02;14.40;99.90
10149;DHT22;5115;50.920;6.376;2022-10-16T02:56:28;14.40;99.90
10149;DHT22;5115;50.920;6.376;2022-10-16T02:58:54;14.30;99.90
10149;DHT22;5115;50.920;6.376;2022-10-16T03:01:20;14.30;99.90
10149;DHT22;5115;50.920;6.376;2022-10-16T03:03:45;14.20;99.90
10149;DHT22;5115;50.920;6.376;2022-10-16T03:06:11;14.20;99.90
10149;DHT22;5115;50.920;6.376;2022-10-16T03:08:36;14.20;99.90
10149;DHT22;5115;50.920;6.376;2022-10-16T03:11:02;14.10;99.90
10149;DHT22;5115;50.920;6.376;2022-10-16T03:13:28;14.10;99.90
10149;DHT22;5115;50.920;6.376;2022-10-16T03:15:53;14.10;99.90
10149;DHT22;5115;50.920;6.376;2022-10-16T03:18:19;14.20;99.90
10149;DHT22;5115;50.920;6.376;2022-10-16T03:20:44;14.20;99.90
10149;DHT22;5115;50.920;6.376;2022-10-16T03:23:10;14.20;99.90
10149;DHT22;5115;50.920;6.376;2022-10-16T03:25:36;14.20;99.90
10149;DHT22;5115;50.920;6.376;2022-10-16T03:28:01;14.20;99.90
10149;DHT22;5115;50.920;6.376;2022-10-16T03:30:27;14.20;99.90
10149;DHT22;5115;50.920;6.376;2022-10-16T03:32:53;14.20;99.90
10149;DHT22;5115;50.920;6.376;2022-10-16T03:35:20;14.20;99.90
10149;DHT22;5115;50.920;6.376;2022-10-16T03:37:45;14.20;99.90
10149;DHT22;5115;50.920;6.376;2022-10-16T03:40:11;14.20;99.90
10149;DHT22;5115;50.920;6.376;2022-10-16T03:42:36;14.20;99.90
10149;DHT22;5115;50.920;6.376;2022-10-16T03:45:03;14.20;99.90
10149;DHT22;5115;50.920;6.376;2022-10-16T03:47:28;14.20;99.90
10149;DHT22;5115;50.920;6.376;2022-10-16T03:49:54;14.20;99.90
10149;DHT22;5115;50.920;6.376;2022-10-16T03:52:19;14.20;99.90
10149;DHT22;5115;50.920;6.376;2022-10-16T03:54:45;14.30;99.90
10149;DHT22;5115;50.920;6.376;2022-10-16T03:57:12;14.30;99.90
10149;DHT22;5115;50.920;6.376;2022-10-16T03:59:41;14.20;99.90
10149;DHT22;5115;50.920;6.376;2022-10-16T04:02:10;14.20;99.90
10149;DHT22;5115;50.920;6.376;2022-10-16T04:04:35;14.10;99.90
10149;DHT22;5115;50.920;6.376;2022-10-16T04:07:01;14.10;99.90
10149;DHT22;5115;50.920;6.376;2022-10-16T04:09:27;14.10;99.90
10149;DHT22;5115;50.920;6.376;2022-10-16T04:11:52;14.00;99.90
10149;DHT22;5115;50.920;6.376;2022-10-16T04:14:18;14.00;99.90
10149;DHT22;5115;50.920;6.376;2022-10-16T04:16:44;14.00;99.90
10149;DHT22;5115;50.920;6.376;2022-10-16T04:19:10;14.00;99.90
10149;DHT22;5115;50.920;6.376;2022-10-16T04:21:36;13.90;99.90
10149;DHT22;5115;50.920;6.376;2022-10-16T04:24:02;13.90;99.90
10149;DHT22;5115;50.920;6.376;2022-10-16T04:26:36;13.90;99.90
10149;DHT22;5115;50.920;6.376;2022-10-16T04:29:02;13.90;99.90
10149;DHT22;5115;50.920;6.376;2022-10-16T04:31:27;13.90;99.90
10149;DHT22;5115;50.920;6.376;2022-10-16T04:33:56;13.90;99.90
10149;DHT22;5115;50.920;6.376;2022-10-16T04:36:27;13.80;99.90
10149;DHT22;5115;50.920;6.376;2022-10-16T04:38:59;13.80;99.90
10149;DHT22;5115;50.920;6.376;2022-10-16T04:41:34;14.30;99.90
10149;DHT22;5115;50.920;6.376;2022-10-16T04:44:03;13.70;99.90
10149;DHT22;5115;50.920;6.376;2022-10-16T04:46:31;13.80;99.90
10149;DHT22;5115;50.920;6.376;2022-10-16T04:48:57;13.70;99.90
10149;DHT22;5115;50.920;6.376;2022-10-16T04:51:22;13.70;99.90
10149;DHT22;5115;50.920;6.376;2022-10-16T04:53:48;13.70;99.90
10149;DHT22;5115;50.920;6.376;2022-10-16T04:56:20;13.70;99.90
10149;DHT22;5115;50.920;6.376;2022-10-16T04:58:46;13.70;99.90
10149;DHT22;5115;50.920;6.376;2022-10-16T05:01:15;13.70;99.90
10149;DHT22;5115;50.920;6.376;2022-10-16T05:03:41;13.70;99.90
10149;DHT22;5115;50.920;6.376;2022-10-16T05:06:19;13.70;99.90
10149;DHT22;5115;50.920;6.376;2022-10-16T05:08:44;13.70;99.90
10149;DHT22;5115;50.920;6.376;2022-10-16T05:11:10;13.60;99.90
10149;DHT22;5115;50.920;6.376;2022-10-16T05:13:35;13.60;99.90
10149;DHT22;5115;50.920;6.376;2022-10-16T05:16:01;13.60;99.90
10149;DHT22;5115;50.920;6.376;2022-10-16T05:18:26;13.50;99.90
10149;DHT22;5115;50.920;6.376;2022-10-16T05:20:54;13.50;99.90
10149;DHT22;5115;50.920;6.376;2022-10-16T05:23:29;13.50;99.90
10149;DHT22;5115;50.920;6.376;2022-10-16T05:25:59;13.50;99.90
10149;DHT22;5115;50.920;6.376;2022-10-16T05:28:26;13.40;99.90
10149;DHT22;5115;50.920;6.376;2022-10-16T05:30:52;13.50;99.90
10149;DHT22;5115;50.920;6.376;2022-10-16T05:33:21;13.50;99.90
10149;DHT22;5115;50.920;6.376;2022-10-16T05:35:53;13.50;99.90
10149;DHT22;5115;50.920;6.376;2022-10-16T05:38:18;13.60;99.90
10149;DHT22;5115;50.920;6.376;2022-10-16T05:40:51;13.60;99.90
10149;DHT22;5115;50.920;6.376;2022-10-16T05:43:22;13.60;99.90
10149;DHT22;5115;50.920;6.376;2022-10-16T05:46:01;13.60;99.90
10149;DHT22;5115;50.920;6.376;2022-10-16T05:48:31;13.60;99.90
10149;DHT22;5115;50.920;6.376;2022-10-16T05:50:58;13.60;99.90
10149;DHT22;5115;50.920;6.376;2022-10-16T05:53:24;13.60;99.90
10149;DHT22;5115;50.920;6.376;2022-10-16T05:55:54;13.60;99.90
10149;DHT22;5115;50.920;6.376;2022-10-16T05:58:21;13.60;99.90
10149;DHT22;5115;50.920;6.376;2022-10-16T06:00:55;13.60;99.90
10149;DHT22;5115;50.920;6.376;2022-10-16T06:03:20;13.60;99.90
10149;DHT22;5115;50.920;6.376;2022-10-16T06:05:46;13.60;99.90
10149;DHT22;5115;50.920;6.376;2022-10-16T06:08:12;13.60;99.90
10149;DHT22;5115;50.920;6.376;2022-10-16T06:10:37;13.60;99.90
10149;DHT22;5115;50.920;6.376;2022-10-16T06:13:03;13.60;99.90
10149;DHT22;5115;50.920;6.376;2022-10-16T06:15:28;13.60;99.90
10149;DHT22;5115;50.920;6.376;2022-10-16T06:17:57;13.60;99.90
10149;DHT22;5115;50.920;6.376;2022-10-16T06:20:22;13.60;99.90
10149;DHT22;5115;50.920;6.376;2022-10-16T06:22:48;13.60;99.90
10149;DHT22;5115;50.920;6.376;2022-10-16T06:25:19;13.60;99.90
10149;DHT22;5115;50.920;6.376;2022-10-16T06:27:45;13.60;99.90
10149;DHT22;5115;50.920;6.376;2022-10-16T06:30:10;13.60;99.90
10149;DHT22;5115;50.920;6.376;2022-10-16T06:32:36;13.70;99.90
10149;DHT22;5115;50.920;6.376;2022-10-16T06:35:01;13.70;99.90
10149;DHT22;5115;50.920;6.376;2022-10-16T06:37:47;13.80;99.90
10149;DHT22;5115;50.920;6.376;2022-10-16T06:40:13;13.80;99.90
10149;DHT22;5115;50.920;6.376;2022-10-16T06:42:40;13.80;99.90
10149;DHT22;5115;50.920;6.376;2022-10-16T06:45:06;13.90;99.90
10149;DHT22;5115;50.920;6.376;2022-10-16T06:47:40;14.10;99.90
10149;DHT22;5115;50.920;6.376;2022-10-16T06:50:06;14.30;99.90
10149;DHT22;5115;50.920;6.376;2022-10-16T06:52:35;14.50;99.90
10149;DHT22;5115;50.920;6.376;2022-10-16T06:55:01;14.50;99.90
10149;DHT22;5115;50.920;6.376;2022-10-16T06:57:30;14.60;99.90
10149;DHT22;5115;50.920;6.376;2022-10-16T06:59:56;14.60;99.90
10149;DHT22;5115;50.920;6.376;2022-10-16T07:02:22;14.70;99.90
10149;DHT22;5115;50.920;6.376;2022-10-16T07:04:50;14.90;99.90
10149;DHT22;5115;50.920;6.376;2022-10-16T07:07:16;15.20;99.90
10149;DHT22;5115;50.920;6.376;2022-10-16T07:09:41;15.50;99.90
10149;DHT22;5115;50.920;6.376;2022-10-16T07:12:07;15.70;99.90
10149;DHT22;5115;50.920;6.376;2022-10-16T07:14:32;15.90;99.90
10149;DHT22;5115;50.920;6.376;2022-10-16T07:16:58;16.50;99.90
10149;DHT22;5115;50.920;6.376;2022-10-16T07:19:23;17.20;99.90
10149;DHT22;5115;50.920;6.376;2022-10-16T07:21:50;18.20;99.90
10149;DHT22;5115;50.920;6.376;2022-10-16T07:24:16;19.40;99.90
10149;DHT22;5115;50.920;6.376;2022-10-16T07:26:45;20.30;99.90
10149;DHT22;5115;50.920;6.376;2022-10-16T07:29:19;20.40;99.90
10149;DHT22;5115;50.920;6.376;2022-10-16T07:31:49;20.10;99.90
10149;DHT22;5115;50.920;6.376;2022-10-16T07:34:16;19.50;99.90
10149;DHT22;5115;50.920;6.376;2022-10-16T07:36:42;18.90;99.90
10149;DHT22;5115;50.920;6.376;2022-10-16T07:39:08;18.30;99.90
10149;DHT22;5115;50.920;6.376;2022-10-16T07:41:33;18.50;99.90
10149;DHT22;5115;50.920;6.376;2022-10-16T07:44:02;19.10;99.90
10149;DHT22;5115;50.920;6.376;2022-10-16T07:46:28;20.40;99.90
10149;DHT22;5115;50.920;6.376;2022-10-16T07:48:53;21.70;99.90
10149;DHT22;5115;50.920;6.376;2022-10-16T07:51:21;22.90;99.90
10149;DHT22;5115;50.920;6.376;2022-10-16T07:53:47;24.00;99.90
10149;DHT22;5115;50.920;6.376;2022-10-16T07:56:15;24.60;99.90
10149;DHT22;5115;50.920;6.376;2022-10-16T07:58:43;25.30;99.90
10149;DHT22;5115;50.920;6.376;2022-10-16T08:01:12;25.70;99.90
10149;DHT22;5115;50.920;6.376;2022-10-16T08:03:41;25.60;99.90
10149;DHT22;5115;50.920;6.376;2022-10-16T08:06:07;24.60;99.90
10149;DHT22;5115;50.920;6.376;2022-10-16T08:08:32;24.10;99.90
10149;DHT22;5115;50.920;6.376;2022-10-16T08:10:58;24.40;99.90
10149;DHT22;5115;50.920;6.376;2022-10-16T08:13:24;25.30;99.90
10149;DHT22;5115;50.920;6.376;2022-10-16T08:15:50;26.20;99.90
10149;DHT22;5115;50.920;6.376;2022-10-16T08:18:16;27.00;99.90
10149;DHT22;5115;50.920;6.376;2022-10-16T08:20:42;27.50;99.90
10149;DHT22;5115;50.920;6.376;2022-10-16T08:23:10;27.90;99.90
10149;DHT22;5115;50.920;6.376;2022-10-16T08:25:37;28.20;99.90
10149;DHT22;5115;50.920;6.376;2022-10-16T08:28:04;28.70;99.90
10149;DHT22;5115;50.920;6.376;2022-10-16T08:30:33;28.80;99.90
10149;DHT22;5115;50.920;6.376;2022-10-16T08:32:59;28.80;99.90
10149;DHT22;5115;50.920;6.376;2022-10-16T08:35:25;29.10;99.90
10149;DHT22;5115;50.920;6.376;2022-10-16T08:37:50;29.10;99.90
10149;DHT22;5115;50.920;6.376;2022-10-16T08:40:20;29.20;99.90
10149;DHT22;5115;50.920;6.376;2022-10-16T08:43:04;29.20;99.90
10149;DHT22;5115;50.920;6.376;2022-10-16T08:45:40;29.50;99.90
10149;DHT22;5115;50.920;6.376;2022-10-16T08:50:48;29.70;99.90
10149;DHT22;5115;50.920;6.376;2022-10-16T08:53:24;30.00;99.90
10149;DHT22;5115;50.920;6.376;2022-10-16T08:55:52;29.40;99.90
10149;DHT22;5115;50.920;6.376;2022-10-16T08:58:25;29.80;99.90
10149;DHT22;5115;50.920;6.376;2022-10-16T09:00:56;30.30;99.90
10149;DHT22;5115;50.920;6.376;2022-10-16T09:06:21;31.10;99.90
10149;DHT22;5115;50.920;6.376;2022-10-16T09:14:54;30.90;99.90
10149;DHT22;5115;50.920;6.376;2022-10-16T09:17:25;31.60;99.90
10149;DHT22;5115;50.920;6.376;2022-10-16T09:22:44;31.30;99.90
10149;DHT22;5115;50.920;6.376;2022-10-16T09:25:20;31.10;99.90
10149;DHT22;5115;50.920;6.376;2022-10-16T09:27:48;31.30;99.90
10149;DHT22;5115;50.920;6.376;2022-10-16T09:30:16;31.30;99.90
10149;DHT22;5115;50.920;6.376;2022-10-16T09:32:45;30.70;99.90
10149;DHT22;5115;50.920;6.376;2022-10-16T09:35:15;30.00;99.90
10149;DHT22;5115;50.920;6.376;2022-10-16T09:37:43;29.10;99.90
10149;DHT22;5115;50.920;6.376;2022-10-16T09:40:28;28.50;99.90
10149;DHT22;5115;50.920;6.376;2022-10-16T09:43:23;28.70;99.90
10149;DHT22;5115;50.920;6.376;2022-10-16T09:45:58;29.10;99.90
10149;DHT22;5115;50.920;6.376;2022-10-16T09:48:27;29.20;99.90
10149;DHT22;5115;50.920;6.376;2022-10-16T09:50:59;28.60;99.90
10149;DHT22;5115;50.920;6.376;2022-10-16T09:53:37;28.40;99.90
10149;DHT22;5115;50.920;6.376;2022-10-16T09:56:03;28.20;99.90
10149;DHT22;5115;50.920;6.376;2022-10-16T09:58:31;28.00;99.90
10149;DHT22;5115;50.920;6.376;2022-10-16T10:00:58;27.10;99.90
10149;DHT22;5115;50.920;6.376;2022-10-16T10:03:36;27.20;99.90
10149;DHT22;5115;50.920;6.376;2022-10-16T10:06:16;26.50;99.90
10149;DHT22;5115;50.920;6.376;2022-10-16T10:09:18;25.90;99.90
10149;DHT22;5115;50.920;6.376;2022-10-16T10:11:59;25.70;99.90
10149;DHT22;5115;50.920;6.376;2022-10-16T10:14:34;25.80;99.90
10149;DHT22;5115;50.920;6.376;2022-10-16T10:22:26;26.10;99.90
10149;DHT22;5115;50.920;6.376;2022-10-16T10:30:29;25.50;99.90
10149;DHT22;5115;50.920;6.376;2022-10-16T10:49:40;25.10;99.90
10149;DHT22;5115;50.920;6.376;2022-10-16T10:57:30;24.30;99.90
10149;DHT22;5115;50.920;6.376;2022-10-16T11:00:17;24.70;99.90
10149;DHT22;5115;50.920;6.376;2022-10-16T11:06:00;25.10;99.90
10149;DHT22;5115;50.920;6.376;2022-10-16T11:08:48;24.90;99.90
10149;DHT22;5115;50.920;6.376;2022-10-16T11:11:22;24.60;99.90
10149;DHT22;5115;50.920;6.376;2022-10-16T11:14:00;24.50;99.90
10149;DHT22;5115;50.920;6.376;2022-10-16T11:16:34;24.20;99.90
10149;DHT22;5115;50.920;6.376;2022-10-16T11:19:37;24.10;99.90
10149;DHT22;5115;50.920;6.376;2022-10-16T11:22:15;24.10;99.90
10149;DHT22;5115;50.920;6.376;2022-10-16T11:28:01;23.90;99.90
10149;DHT22;5115;50.920;6.376;2022-10-16T11:30:39;23.90;99.90
10149;DHT22;5115;50.920;6.376;2022-10-16T11:41:22;23.40;99.90
10149;DHT22;5115;50.920;6.376;2022-10-16T11:44:09;23.50;99.90
10149;DHT22;5115;50.920;6.376;2022-10-16T11:46:41;23.60;99.90
10149;DHT22;5115;50.920;6.376;2022-10-16T11:49:16;23.70;99.90
10149;DHT22;5115;50.920;6.376;2022-10-16T11:54:39;23.60;99.90
10149;DHT22;5115;50.920;6.376;2022-10-16T11:57:18;23.20;99.90
10149;DHT22;5115;50.920;6.376;2022-10-16T11:59:55;23.10;99.90
10149;DHT22;5115;50.920;6.376;2022-10-16T12:05:24;22.90;99.90
10149;DHT22;5115;50.920;6.376;2022-10-16T12:08:10;22.80;99.90
10149;DHT22;5115;50.920;6.376;2022-10-16T12:10:38;22.80;99.90
10149;DHT22;5115;50.920;6.376;2022-10-16T12:13:05;23.00;99.90
10149;DHT22;5115;50.920;6.376;2022-10-16T12:15:50;23.00;99.90
10149;DHT22;5115;50.920;6.376;2022-10-16T12:18:21;23.00;99.90
10149;DHT22;5115;50.920;6.376;2022-10-16T12:20:57;22.90;99.90
10149;DHT22;5115;50.920;6.376;2022-10-16T12:26:13;22.70;99.90
10149;DHT22;5115;50.920;6.376;2022-10-16T12:28:38;22.60;99.90
10149;DHT22;5115;50.920;6.376;2022-10-16T12:31:07;22.70;99.90
10149;DHT22;5115;50.920;6.376;2022-10-16T12:33:37;22.70;99.90
10149;DHT22;5115;50.920;6.376;2022-10-16T12:36:15;22.70;99.90
10149;DHT22;5115;50.920;6.376;2022-10-16T12:38:52;22.80;99.90
10149;DHT22;5115;50.920;6.376;2022-10-16T12:43:54;22.90;99.90
10149;DHT22;5115;50.920;6.376;2022-10-16T12:46:24;22.80;99.90
10149;DHT22;5115;50.920;6.376;2022-10-16T12:48:49;22.80;99.90
10149;DHT22;5115;50.920;6.376;2022-10-16T12:54:03;22.90;99.90
10149;DHT22;5115;50.920;6.376;2022-10-16T13:02:57;22.70;99.90
10149;DHT22;5115;50.920;6.376;2022-10-16T13:05:55;22.80;99.90
10149;DHT22;5115;50.920;6.376;2022-10-16T13:19:17;22.70;99.90
10149;DHT22;5115;50.920;6.376;2022-10-16T13:22:03;22.80;99.90
10149;DHT22;5115;50.920;6.376;2022-10-16T13:27:39;22.50;99.90
10149;DHT22;5115;50.920;6.376;2022-10-16T13:30:11;22.30;99.90
10149;DHT22;5115;50.920;6.376;2022-10-16T13:32:37;22.20;99.90
10149;DHT22;5115;50.920;6.376;2022-10-16T13:35:19;22.00;99.90
10149;DHT22;5115;50.920;6.376;2022-10-16T13:37:45;21.80;99.90
10149;DHT22;5115;50.920;6.376;2022-10-16T13:40:29;21.80;99.90
10149;DHT22;5115;50.920;6.376;2022-10-16T13:42:54;21.70;99.90
10149;DHT22;5115;50.920;6.376;2022-10-16T13:45:22;21.60;99.90
10149;DHT22;5115;50.920;6.376;2022-10-16T13:47:48;21.50;99.90
10149;DHT22;5115;50.920;6.376;2022-10-16T13:50:18;21.50;99.90
10149;DHT22;5115;50.920;6.376;2022-10-16T13:52:44;21.60;99.90
10149;DHT22;5115;50.920;6.376;2022-10-16T13:55:17;21.30;99.90
10149;DHT22;5115;50.920;6.376;2022-10-16T13:57:44;21.40;99.90
10149;DHT22;5115;50.920;6.376;2022-10-16T14:00:22;21.30;99.90
10149;DHT22;5115;50.920;6.376;2022-10-16T14:02:54;21.20;99.90
10149;DHT22;5115;50.920;6.376;2022-10-16T14:05:20;21.40;99.90
10149;DHT22;5115;50.920;6.376;2022-10-16T14:07:49;21.40;99.90
10149;DHT22;5115;50.920;6.376;2022-10-16T14:10:25;21.50;99.90
10149;DHT22;5115;50.920;6.376;2022-10-16T14:15:22;21.30;99.90
10149;DHT22;5115;50.920;6.376;2022-10-16T14:17:50;21.30;99.90
10149;DHT22;5115;50.920;6.376;2022-10-16T14:20:16;21.30;99.90
10149;DHT22;5115;50.920;6.376;2022-10-16T14:22:45;21.30;99.90
10149;DHT22;5115;50.920;6.376;2022-10-16T14:27:59;21.20;99.90
10149;DHT22;5115;50.920;6.376;2022-10-16T14:30:26;21.20;99.90
10149;DHT22;5115;50.920;6.376;2022-10-16T14:33:00;21.20;99.90
10149;DHT22;5115;50.920;6.376;2022-10-16T14:35:33;21.00;99.90
10149;DHT22;5115;50.920;6.376;2022-10-16T14:38:01;20.90;99.90
10149;DHT22;5115;50.920;6.376;2022-10-16T14:40:30;20.90;99.90
10149;DHT22;5115;50.920;6.376;2022-10-16T14:42:57;21.00;99.90
10149;DHT22;5115;50.920;6.376;2022-10-16T14:45:29;20.90;99.90
10149;DHT22;5115;50.920;6.376;2022-10-16T14:48:05;20.60;99.90
10149;DHT22;5115;50.920;6.376;2022-10-16T14:50:31;20.70;99.90
10149;DHT22;5115;50.920;6.376;2022-10-16T14:52:57;20.70;99.90
10149;DHT22;5115;50.920;6.376;2022-10-16T14:55:24;20.70;99.90
10149;DHT22;5115;50.920;6.376;2022-10-16T14:57:50;20.80;99.90
10149;DHT22;5115;50.920;6.376;2022-10-16T15:00:17;20.80;99.90
10149;DHT22;5115;50.920;6.376;2022-10-16T15:02:43;20.90;99.90
10149;DHT22;5115;50.920;6.376;2022-10-16T15:05:18;20.90;99.90
10149;DHT22;5115;50.920;6.376;2022-10-16T15:07:44;21.00;99.90
10149;DHT22;5115;50.920;6.376;2022-10-16T15:10:12;21.10;99.90
10149;DHT22;5115;50.920;6.376;2022-10-16T15:12:37;21.10;99.90
10149;DHT22;5115;50.920;6.376;2022-10-16T15:15:25;21.10;99.90
10149;DHT22;5115;50.920;6.376;2022-10-16T15:17:54;21.10;99.90
10149;DHT22;5115;50.920;6.376;2022-10-16T15:20:25;21.10;99.90
10149;DHT22;5115;50.920;6.376;2022-10-16T15:22:51;21.00;99.90
10149;DHT22;5115;50.920;6.376;2022-10-16T15:25:36;21.00;99.90
10149;DHT22;5115;50.920;6.376;2022-10-16T15:28:03;20.70;99.90
10149;DHT22;5115;50.920;6.376;2022-10-16T15:30:29;20.60;99.90
10149;DHT22;5115;50.920;6.376;2022-10-16T15:32:55;20.50;99.90
10149;DHT22;5115;50.920;6.376;2022-10-16T15:35:21;20.50;99.90
10149;DHT22;5115;50.920;6.376;2022-10-16T15:37:47;20.30;99.90
10149;DHT22;5115;50.920;6.376;2022-10-16T15:40:13;20.30;99.90
10149;DHT22;5115;50.920;6.376;2022-10-16T15:42:38;20.40;99.90
10149;DHT22;5115;50.920;6.376;2022-10-16T15:45:04;20.40;99.90
10149;DHT22;5115;50.920;6.376;2022-10-16T15:47:31;20.30;99.90
10149;DHT22;5115;50.920;6.376;2022-10-16T15:49:57;20.40;99.90
10149;DHT22;5115;50.920;6.376;2022-10-16T15:52:22;20.40;99.90
10149;DHT22;5115;50.920;6.376;2022-10-16T15:54:48;20.30;99.90
10149;DHT22;5115;50.920;6.376;2022-10-16T15:57:13;20.40;99.90
10149;DHT22;5115;50.920;6.376;2022-10-16T15:59:39;20.30;99.90
10149;DHT22;5115;50.920;6.376;2022-10-16T16:02:05;20.30;99.90
10149;DHT22;5115;50.920;6.376;2022-10-16T16:04:30;20.30;99.90
10149;DHT22;5115;50.920;6.376;2022-10-16T16:06:56;20.30;99.90
10149;DHT22;5115;50.920;6.376;2022-10-16T16:09:22;20.30;99.90
10149;DHT22;5115;50.920;6.376;2022-10-16T16:11:49;20.10;99.90
10149;DHT22;5115;50.920;6.376;2022-10-16T16:14:16;20.10;99.90
10149;DHT22;5115;50.920;6.376;2022-10-16T16:16:42;19.90;99.90
10149;DHT22;5115;50.920;6.376;2022-10-16T16:19:08;19.70;99.90
10149;DHT22;5115;50.920;6.376;2022-10-16T16:21:34;19.90;99.90
10149;DHT22;5115;50.920;6.376;2022-10-16T16:24:00;19.90;99.90
10149;DHT22;5115;50.920;6.376;2022-10-16T16:26:28;19.90;99.90
10149;DHT22;5115;50.920;6.376;2022-10-16T16:28:57;19.90;99.90
10149;DHT22;5115;50.920;6.376;2022-10-16T16:31:24;19.90;99.90
10149;DHT22;5115;50.920;6.376;2022-10-16T16:33:50;19.90;99.90
10149;DHT22;5115;50.920;6.376;2022-10-16T16:36:17;19.80;99.90
10149;DHT22;5115;50.920;6.376;2022-10-16T16:38:46;19.20;99.90
10149;DHT22;5115;50.920;6.376;2022-10-16T16:41:18;19.80;99.90
10149;DHT22;5115;50.920;6.376;2022-10-16T16:43:44;19.80;99.90
10149;DHT22;5115;50.920;6.376;2022-10-16T16:46:10;19.80;99.90
10149;DHT22;5115;50.920;6.376;2022-10-16T16:48:41;19.70;99.90
10149;DHT22;5115;50.920;6.376;2022-10-16T16:51:15;19.70;99.90
10149;DHT22;5115;50.920;6.376;2022-10-16T16:53:46;19.70;99.90
10149;DHT22;5115;50.920;6.376;2022-10-16T16:56:13;19.60;99.90
10149;DHT22;5115;50.920;6.376;2022-10-16T16:58:38;19.60;99.90
10149;DHT22;5115;50.920;6.376;2022-10-16T17:01:04;19.60;99.90
10149;DHT22;5115;50.920;6.376;2022-10-16T17:03:34;19.60;99.90
10149;DHT22;5115;50.920;6.376;2022-10-16T17:06:03;19.50;99.90
10149;DHT22;5115;50.920;6.376;2022-10-16T17:08:29;19.50;99.90
10149;DHT22;5115;50.920;6.376;2022-10-16T17:10:55;19.50;99.90
10149;DHT22;5115;50.920;6.376;2022-10-16T17:13:23;20.00;99.90
10149;DHT22;5115;50.920;6.376;2022-10-16T17:15:50;19.40;99.90
10149;DHT22;5115;50.920;6.376;2022-10-16T17:18:16;19.40;99.90
10149;DHT22;5115;50.920;6.376;2022-10-16T17:20:42;19.30;99.90
10149;DHT22;5115;50.920;6.376;2022-10-16T17:23:09;19.20;99.90
10149;DHT22;5115;50.920;6.376;2022-10-16T17:25:38;19.10;99.90
10149;DHT22;5115;50.920;6.376;2022-10-16T17:28:05;19.10;99.90
10149;DHT22;5115;50.920;6.376;2022-10-16T17:30:31;19.00;99.90
10149;DHT22;5115;50.920;6.376;2022-10-16T17:32:58;19.10;99.90
10149;DHT22;5115;50.920;6.376;2022-10-16T17:35:25;18.90;99.90
10149;DHT22;5115;50.920;6.376;2022-10-16T17:37:51;18.80;99.90
10149;DHT22;5115;50.920;6.376;2022-10-16T17:40:17;18.80;99.90
10149;DHT22;5115;50.920;6.376;2022-10-16T17:42:43;18.80;99.90
10149;DHT22;5115;50.920;6.376;2022-10-16T17:45:09;18.80;99.90
10149;DHT22;5115;50.920;6.376;2022-10-16T17:47:34;18.80;99.90
10149;DHT22;5115;50.920;6.376;2022-10-16T17:50:01;18.70;99.90
10149;DHT22;5115;50.920;6.376;2022-10-16T17:52:26;18.80;99.90